sensor_id;sensor_type;location;lat;lon;timestamp;P1;durP1;ratioP1;P2;durP2;ratioP2
40164;SDS011;25882;51.120;17.248;2023-02-05T00:02:08;12.88;;;4.22;;
40164;SDS011;25882;51.120;17.248;2023-02-05T00:04:36;11.85;;;3.95;;
40164;SDS011;25882;51.120;17.248;2023-02-05T00:07:03;11.35;;;4.53;;
40164;SDS011;25882;51.120;17.248;2023-02-05T00:09:30;7.53;;;3.78;;
40164;SDS011;25882;51.120;17.248;2023-02-05T00:11:58;8.85;;;3.75;;
40164;SDS011;25882;51.120;17.248;2023-02-05T00:14:25;12.23;;;5.15;;
40164;SDS011;25882;51.120;17.248;2023-02-05T00:16:51;10.13;;;3.55;;
40164;SDS011;25882;51.120;17.248;2023-02-05T00:19:18;7.78;;;3.75;;
40164;SDS011;25882;51.120;17.248;2023-02-05T00:21:44;11.57;;;3.85;;
40164;SDS011;25882;51.120;17.248;2023-02-05T00:24:11;6.85;;;3.13;;
40164;SDS011;25882;51.120;17.248;2023-02-05T00:26:37;8.45;;;3.92;;
40164;SDS011;25882;51.120;17.248;2023-02-05T00:29:05;12.48;;;3.88;;
40164;SDS011;25882;51.120;17.248;2023-02-05T00:31:31;13.63;;;4.25;;
40164;SDS011;25882;51.120;17.248;2023-02-05T00:33:58;13.75;;;5.30;;
40164;SDS011;25882;51.120;17.248;2023-02-05T00:36:25;10.52;;;3.97;;
40164;SDS011;25882;51.120;17.248;2023-02-05T00:38:52;8.27;;;3.95;;
40164;SDS011;25882;51.120;17.248;2023-02-05T00:41:18;13.98;;;3.97;;
40164;SDS011;25882;51.120;17.248;2023-02-05T00:43:45;12.18;;;4.25;;
40164;SDS011;25882;51.120;17.248;2023-02-05T00:46:13;17.23;;;7.15;;
40164;SDS011;25882;51.120;17.248;2023-02-05T00:48:41;9.90;;;3.88;;
40164;SDS011;25882;51.120;17.248;2023-02-05T00:51:08;11.02;;;4.32;;
40164;SDS011;25882;51.120;17.248;2023-02-05T00:53:35;11.38;;;4.82;;
40164;SDS011;25882;51.120;17.248;2023-02-05T00:56:01;15.43;;;6.20;;
40164;SDS011;25882;51.120;17.248;2023-02-05T00:58:28;11.27;;;4.28;;
40164;SDS011;25882;51.120;17.248;2023-02-05T01:00:55;13.32;;;5.82;;
40164;SDS011;25882;51.120;17.248;2023-02-05T01:03:24;9.70;;;3.58;;
40164;SDS011;25882;51.120;17.248;2023-02-05T01:05:50;12.52;;;4.13;;
40164;SDS011;25882;51.120;17.248;2023-02-05T01:08:17;8.00;;;3.50;;
40164;SDS011;25882;51.120;17.248;2023-02-05T01:10:43;9.18;;;4.25;;
40164;SDS011;25882;51.120;17.248;2023-02-05T01:13:11;12.70;;;4.50;;
40164;SDS011;25882;51.120;17.248;2023-02-05T01:15:37;7.63;;;3.30;;
40164;SDS011;25882;51.120;17.248;2023-02-05T01:18:04;9.48;;;3.92;;
40164;SDS011;25882;51.120;17.248;2023-02-05T01:20:32;8.98;;;3.97;;
40164;SDS011;25882;51.120;17.248;2023-02-05T01:23:01;9.65;;;4.10;;
40164;SDS011;25882;51.120;17.248;2023-02-05T01:25:27;11.13;;;3.85;;
40164;SDS011;25882;51.120;17.248;2023-02-05T01:27:54;12.50;;;3.85;;
40164;SDS011;25882;51.120;17.248;2023-02-05T01:30:20;8.93;;;3.33;;
40164;SDS011;25882;51.120;17.248;2023-02-05T01:32:46;7.78;;;4.40;;
40164;SDS011;25882;51.120;17.248;2023-02-05T01:35:13;11.32;;;5.10;;
40164;SDS011;25882;51.120;17.248;2023-02-05T01:37:41;7.03;;;2.58;;
40164;SDS011;25882;51.120;17.248;2023-02-05T01:40:08;9.48;;;4.28;;
40164;SDS011;25882;51.120;17.248;2023-02-05T01:42:36;10.13;;;4.90;;
40164;SDS011;25882;51.120;17.248;2023-02-05T01:48:09;11.07;;;4.63;;
40164;SDS011;25882;51.120;17.248;2023-02-05T01:50:36;12.15;;;4.07;;
40164;SDS011;25882;51.120;17.248;2023-02-05T01:53:08;12.18;;;4.68;;
40164;SDS011;25882;51.120;17.248;2023-02-05T01:55:37;16.00;;;5.05;;
40164;SDS011;25882;51.120;17.248;2023-02-05T01:58:05;10.32;;;4.55;;
40164;SDS011;25882;51.120;17.248;2023-02-05T02:00:31;14.00;;;4.95;;
40164;SDS011;25882;51.120;17.248;2023-02-05T02:02:58;10.32;;;3.53;;
40164;SDS011;25882;51.120;17.248;2023-02-05T02:05:24;10.30;;;4.75;;
40164;SDS011;25882;51.120;17.248;2023-02-05T02:07:51;17.17;;;7.88;;
40164;SDS011;25882;51.120;17.248;2023-02-05T02:13:08;12.55;;;5.90;;
40164;SDS011;25882;51.120;17.248;2023-02-05T02:15:36;9.68;;;4.07;;
40164;SDS011;25882;51.120;17.248;2023-02-05T02:18:02;9.55;;;4.43;;
40164;SDS011;25882;51.120;17.248;2023-02-05T02:20:51;8.13;;;3.97;;
40164;SDS011;25882;51.120;17.248;2023-02-05T02:23:31;10.52;;;4.90;;
40164;SDS011;25882;51.120;17.248;2023-02-05T02:26:10;8.35;;;3.92;;
40164;SDS011;25882;51.120;17.248;2023-02-05T02:28:46;7.55;;;4.47;;
40164;SDS011;25882;51.120;17.248;2023-02-05T02:31:15;13.85;;;6.13;;
40164;SDS011;25882;51.120;17.248;2023-02-05T02:33:47;11.38;;;6.50;;
40164;SDS011;25882;51.120;17.248;2023-02-05T02:36:18;10.40;;;4.75;;
40164;SDS011;25882;51.120;17.248;2023-02-05T02:38:48;11.98;;;4.53;;
40164;SDS011;25882;51.120;17.248;2023-02-05T02:41:18;11.05;;;4.95;;
40164;SDS011;25882;51.120;17.248;2023-02-05T02:43:51;8.15;;;3.90;;
40164;SDS011;25882;51.120;17.248;2023-02-05T02:46:20;16.55;;;5.40;;
40164;SDS011;25882;51.120;17.248;2023-02-05T02:48:47;22.88;;;8.93;;
40164;SDS011;25882;51.120;17.248;2023-02-05T02:51:16;14.00;;;6.35;;
40164;SDS011;25882;51.120;17.248;2023-02-05T02:53:44;76.80;;;23.45;;
40164;SDS011;25882;51.120;17.248;2023-02-05T02:56:13;32.40;;;11.13;;
40164;SDS011;25882;51.120;17.248;2023-02-05T02:58:41;40.28;;;14.00;;
40164;SDS011;25882;51.120;17.248;2023-02-05T03:04:03;68.40;;;23.60;;
40164;SDS011;25882;51.120;17.248;2023-02-05T03:06:33;183.85;;;63.40;;
40164;SDS011;25882;51.120;17.248;2023-02-05T03:09:02;147.02;;;51.03;;
40164;SDS011;25882;51.120;17.248;2023-02-05T03:11:31;117.95;;;40.83;;
40164;SDS011;25882;51.120;17.248;2023-02-05T03:13:58;150.70;;;52.55;;
40164;SDS011;25882;51.120;17.248;2023-02-05T03:16:25;102.50;;;32.53;;
40164;SDS011;25882;51.120;17.248;2023-02-05T03:18:53;137.25;;;47.53;;
40164;SDS011;25882;51.120;17.248;2023-02-05T03:21:21;19.67;;;8.07;;
40164;SDS011;25882;51.120;17.248;2023-02-05T03:23:49;30.83;;;11.38;;
40164;SDS011;25882;51.120;17.248;2023-02-05T03:26:21;25.27;;;11.23;;
40164;SDS011;25882;51.120;17.248;2023-02-05T03:28:48;53.60;;;18.98;;
40164;SDS011;25882;51.120;17.248;2023-02-05T03:31:16;35.85;;;12.65;;
40164;SDS011;25882;51.120;17.248;2023-02-05T03:33:46;12.55;;;6.40;;
40164;SDS011;25882;51.120;17.248;2023-02-05T03:36:24;13.85;;;7.25;;
40164;SDS011;25882;51.120;17.248;2023-02-05T03:39:00;20.50;;;8.45;;
40164;SDS011;25882;51.120;17.248;2023-02-05T03:41:33;24.70;;;9.65;;
40164;SDS011;25882;51.120;17.248;2023-02-05T03:44:23;47.42;;;16.60;;
40164;SDS011;25882;51.120;17.248;2023-02-05T03:46:55;78.28;;;29.98;;
40164;SDS011;25882;51.120;17.248;2023-02-05T03:49:26;75.65;;;26.63;;
40164;SDS011;25882;51.120;17.248;2023-02-05T03:51:58;33.78;;;12.07;;
40164;SDS011;25882;51.120;17.248;2023-02-05T03:54:28;14.80;;;6.97;;
40164;SDS011;25882;51.120;17.248;2023-02-05T03:56:59;12.18;;;5.57;;
40164;SDS011;25882;51.120;17.248;2023-02-05T03:59:30;13.68;;;6.25;;
40164;SDS011;25882;51.120;17.248;2023-02-05T04:01:58;46.97;;;17.95;;
40164;SDS011;25882;51.120;17.248;2023-02-05T04:04:26;11.05;;;6.18;;
40164;SDS011;25882;51.120;17.248;2023-02-05T04:06:53;22.35;;;9.77;;
40164;SDS011;25882;51.120;17.248;2023-02-05T04:09:19;24.10;;;11.70;;
40164;SDS011;25882;51.120;17.248;2023-02-05T04:11:46;15.55;;;7.32;;
40164;SDS011;25882;51.120;17.248;2023-02-05T04:14:12;10.00;;;5.15;;
40164;SDS011;25882;51.120;17.248;2023-02-05T04:16:38;18.48;;;10.27;;
40164;SDS011;25882;51.120;17.248;2023-02-05T04:19:04;13.13;;;6.20;;
40164;SDS011;25882;51.120;17.248;2023-02-05T04:21:33;14.90;;;7.07;;
40164;SDS011;25882;51.120;17.248;2023-02-05T04:23:59;9.85;;;5.28;;
40164;SDS011;25882;51.120;17.248;2023-02-05T04:26:25;19.73;;;9.85;;
40164;SDS011;25882;51.120;17.248;2023-02-05T04:28:51;30.80;;;16.23;;
40164;SDS011;25882;51.120;17.248;2023-02-05T04:31:18;16.83;;;7.15;;
40164;SDS011;25882;51.120;17.248;2023-02-05T04:33:44;20.05;;;10.65;;
40164;SDS011;25882;51.120;17.248;2023-02-05T04:36:11;16.48;;;8.52;;
40164;SDS011;25882;51.120;17.248;2023-02-05T04:38:40;19.60;;;11.57;;
40164;SDS011;25882;51.120;17.248;2023-02-05T04:41:06;15.13;;;8.48;;
40164;SDS011;25882;51.120;17.248;2023-02-05T04:43:33;16.10;;;9.02;;
40164;SDS011;25882;51.120;17.248;2023-02-05T04:46:03;16.40;;;8.90;;
40164;SDS011;25882;51.120;17.248;2023-02-05T04:48:29;10.10;;;6.53;;
40164;SDS011;25882;51.120;17.248;2023-02-05T04:50:56;11.82;;;9.10;;
40164;SDS011;25882;51.120;17.248;2023-02-05T04:53:22;11.20;;;6.50;;
40164;SDS011;25882;51.120;17.248;2023-02-05T04:55:51;9.90;;;6.80;;
40164;SDS011;25882;51.120;17.248;2023-02-05T04:58:19;13.52;;;7.13;;
40164;SDS011;25882;51.120;17.248;2023-02-05T05:00:46;13.27;;;7.07;;
40164;SDS011;25882;51.120;17.248;2023-02-05T05:03:12;10.48;;;5.82;;
40164;SDS011;25882;51.120;17.248;2023-02-05T05:05:38;16.58;;;8.00;;
40164;SDS011;25882;51.120;17.248;2023-02-05T05:08:05;14.43;;;7.25;;
40164;SDS011;25882;51.120;17.248;2023-02-05T05:10:31;13.13;;;7.82;;
40164;SDS011;25882;51.120;17.248;2023-02-05T05:12:59;11.18;;;6.80;;
40164;SDS011;25882;51.120;17.248;2023-02-05T05:15:25;8.75;;;5.43;;
40164;SDS011;25882;51.120;17.248;2023-02-05T05:17:52;9.70;;;5.50;;
40164;SDS011;25882;51.120;17.248;2023-02-05T05:20:18;9.32;;;5.90;;
40164;SDS011;25882;51.120;17.248;2023-02-05T05:22:44;13.90;;;6.35;;
40164;SDS011;25882;51.120;17.248;2023-02-05T05:25:11;23.23;;;9.07;;
40164;SDS011;25882;51.120;17.248;2023-02-05T05:27:37;73.70;;;21.70;;
40164;SDS011;25882;51.120;17.248;2023-02-05T05:30:06;102.18;;;30.23;;
40164;SDS011;25882;51.120;17.248;2023-02-05T05:32:32;112.28;;;33.00;;
40164;SDS011;25882;51.120;17.248;2023-02-05T05:34:59;104.90;;;31.95;;
40164;SDS011;25882;51.120;17.248;2023-02-05T05:37:25;44.47;;;17.40;;
40164;SDS011;25882;51.120;17.248;2023-02-05T05:39:52;44.80;;;16.23;;
40164;SDS011;25882;51.120;17.248;2023-02-05T05:42:36;50.00;;;16.73;;
40164;SDS011;25882;51.120;17.248;2023-02-05T05:45:23;52.10;;;18.02;;
40164;SDS011;25882;51.120;17.248;2023-02-05T05:47:49;32.20;;;13.18;;
40164;SDS011;25882;51.120;17.248;2023-02-05T05:50:16;21.25;;;10.23;;
40164;SDS011;25882;51.120;17.248;2023-02-05T05:52:42;21.23;;;10.15;;
40164;SDS011;25882;51.120;17.248;2023-02-05T05:55:09;18.13;;;9.50;;
40164;SDS011;25882;51.120;17.248;2023-02-05T05:57:35;19.13;;;9.27;;
40164;SDS011;25882;51.120;17.248;2023-02-05T06:00:01;19.10;;;8.70;;
40164;SDS011;25882;51.120;17.248;2023-02-05T06:02:29;20.77;;;9.05;;
40164;SDS011;25882;51.120;17.248;2023-02-05T06:04:55;17.92;;;8.75;;
40164;SDS011;25882;51.120;17.248;2023-02-05T06:07:22;18.13;;;9.25;;
40164;SDS011;25882;51.120;17.248;2023-02-05T06:09:48;18.35;;;7.85;;
40164;SDS011;25882;51.120;17.248;2023-02-05T06:12:14;15.35;;;8.65;;
40164;SDS011;25882;51.120;17.248;2023-02-05T06:14:41;16.77;;;8.00;;
40164;SDS011;25882;51.120;17.248;2023-02-05T06:17:07;16.20;;;7.82;;
40164;SDS011;25882;51.120;17.248;2023-02-05T06:19:35;18.20;;;8.50;;
40164;SDS011;25882;51.120;17.248;2023-02-05T06:22:02;16.45;;;8.70;;
40164;SDS011;25882;51.120;17.248;2023-02-05T06:24:29;18.27;;;8.18;;
40164;SDS011;25882;51.120;17.248;2023-02-05T06:26:55;22.02;;;9.75;;
40164;SDS011;25882;51.120;17.248;2023-02-05T06:29:21;20.25;;;10.20;;
40164;SDS011;25882;51.120;17.248;2023-02-05T06:31:47;23.40;;;12.13;;
40164;SDS011;25882;51.120;17.248;2023-02-05T06:34:14;26.17;;;13.25;;
40164;SDS011;25882;51.120;17.248;2023-02-05T06:36:42;27.25;;;13.75;;
40164;SDS011;25882;51.120;17.248;2023-02-05T06:39:09;27.70;;;14.68;;
40164;SDS011;25882;51.120;17.248;2023-02-05T06:41:35;28.35;;;17.35;;
40164;SDS011;25882;51.120;17.248;2023-02-05T06:44:01;40.40;;;20.23;;
40164;SDS011;25882;51.120;17.248;2023-02-05T06:46:29;59.17;;;27.60;;
40164;SDS011;25882;51.120;17.248;2023-02-05T06:48:55;88.50;;;38.22;;
40164;SDS011;25882;51.120;17.248;2023-02-05T06:51:21;68.28;;;28.90;;
40164;SDS011;25882;51.120;17.248;2023-02-05T06:53:49;45.70;;;23.33;;
40164;SDS011;25882;51.120;17.248;2023-02-05T06:56:18;65.95;;;29.42;;
40164;SDS011;25882;51.120;17.248;2023-02-05T06:58:45;35.38;;;18.38;;
40164;SDS011;25882;51.120;17.248;2023-02-05T07:01:11;45.42;;;20.83;;
40164;SDS011;25882;51.120;17.248;2023-02-05T07:03:38;39.22;;;18.85;;
40164;SDS011;25882;51.120;17.248;2023-02-05T07:06:04;58.60;;;22.98;;
40164;SDS011;25882;51.120;17.248;2023-02-05T07:08:32;64.72;;;27.00;;
40164;SDS011;25882;51.120;17.248;2023-02-05T07:10:59;91.22;;;37.25;;
40164;SDS011;25882;51.120;17.248;2023-02-05T07:13:27;70.15;;;30.65;;
40164;SDS011;25882;51.120;17.248;2023-02-05T07:15:53;72.07;;;29.05;;
40164;SDS011;25882;51.120;17.248;2023-02-05T07:18:20;99.07;;;42.30;;
40164;SDS011;25882;51.120;17.248;2023-02-05T07:20:47;100.80;;;41.95;;
40164;SDS011;25882;51.120;17.248;2023-02-05T07:23:14;84.15;;;37.80;;
40164;SDS011;25882;51.120;17.248;2023-02-05T07:25:40;61.92;;;26.67;;
40164;SDS011;25882;51.120;17.248;2023-02-05T07:28:08;41.85;;;20.05;;
40164;SDS011;25882;51.120;17.248;2023-02-05T07:30:34;31.55;;;13.90;;
40164;SDS011;25882;51.120;17.248;2023-02-05T07:33:01;29.20;;;12.23;;
40164;SDS011;25882;51.120;17.248;2023-02-05T07:35:28;24.05;;;12.68;;
40164;SDS011;25882;51.120;17.248;2023-02-05T07:37:54;33.72;;;15.25;;
40164;SDS011;25882;51.120;17.248;2023-02-05T07:40:20;45.40;;;18.42;;
40164;SDS011;25882;51.120;17.248;2023-02-05T07:42:47;36.95;;;16.75;;
40164;SDS011;25882;51.120;17.248;2023-02-05T07:45:14;38.53;;;15.65;;
40164;SDS011;25882;51.120;17.248;2023-02-05T07:47:41;32.83;;;16.50;;
40164;SDS011;25882;51.120;17.248;2023-02-05T07:50:07;32.13;;;16.92;;
40164;SDS011;25882;51.120;17.248;2023-02-05T07:52:34;45.53;;;20.58;;
40164;SDS011;25882;51.120;17.248;2023-02-05T07:55:00;24.50;;;13.65;;
40164;SDS011;25882;51.120;17.248;2023-02-05T07:57:27;24.40;;;14.18;;
40164;SDS011;25882;51.120;17.248;2023-02-05T07:59:53;20.90;;;11.00;;
40164;SDS011;25882;51.120;17.248;2023-02-05T08:02:21;17.98;;;9.15;;
40164;SDS011;25882;51.120;17.248;2023-02-05T08:04:47;19.55;;;9.25;;
40164;SDS011;25882;51.120;17.248;2023-02-05T08:07:14;13.98;;;8.40;;
40164;SDS011;25882;51.120;17.248;2023-02-05T08:09:40;20.25;;;11.25;;
40164;SDS011;25882;51.120;17.248;2023-02-05T08:12:06;21.67;;;10.20;;
40164;SDS011;25882;51.120;17.248;2023-02-05T08:14:33;14.70;;;8.52;;
40164;SDS011;25882;51.120;17.248;2023-02-05T08:17:00;18.17;;;11.32;;
40164;SDS011;25882;51.120;17.248;2023-02-05T08:19:28;18.98;;;9.45;;
40164;SDS011;25882;51.120;17.248;2023-02-05T08:21:55;11.23;;;8.20;;
40164;SDS011;25882;51.120;17.248;2023-02-05T08:24:21;17.27;;;10.00;;
40164;SDS011;25882;51.120;17.248;2023-02-05T08:26:47;15.05;;;8.57;;
40164;SDS011;25882;51.120;17.248;2023-02-05T08:29:14;17.00;;;9.13;;
40164;SDS011;25882;51.120;17.248;2023-02-05T08:31:40;19.45;;;9.77;;
40164;SDS011;25882;51.120;17.248;2023-02-05T08:34:07;12.30;;;7.93;;
40164;SDS011;25882;51.120;17.248;2023-02-05T08:36:36;17.88;;;9.25;;
40164;SDS011;25882;51.120;17.248;2023-02-05T08:39:02;16.50;;;8.35;;
40164;SDS011;25882;51.120;17.248;2023-02-05T08:41:30;13.32;;;7.40;;
40164;SDS011;25882;51.120;17.248;2023-02-05T08:43:56;12.57;;;7.50;;
40164;SDS011;25882;51.120;17.248;2023-02-05T08:46:23;12.45;;;7.13;;
40164;SDS011;25882;51.120;17.248;2023-02-05T08:48:50;11.90;;;7.65;;
40164;SDS011;25882;51.120;17.248;2023-02-05T08:51:17;12.20;;;6.35;;
40164;SDS011;25882;51.120;17.248;2023-02-05T08:53:47;17.30;;;7.97;;
40164;SDS011;25882;51.120;17.248;2023-02-05T08:56:14;11.25;;;7.03;;
40164;SDS011;25882;51.120;17.248;2023-02-05T08:58:41;14.30;;;7.00;;
40164;SDS011;25882;51.120;17.248;2023-02-05T09:01:09;15.70;;;7.60;;
40164;SDS011;25882;51.120;17.248;2023-02-05T09:03:36;15.25;;;8.50;;
40164;SDS011;25882;51.120;17.248;2023-02-05T09:06:04;20.13;;;9.48;;
40164;SDS011;25882;51.120;17.248;2023-02-05T09:08:32;13.52;;;7.25;;
40164;SDS011;25882;51.120;17.248;2023-02-05T09:11:00;19.70;;;10.43;;
40164;SDS011;25882;51.120;17.248;2023-02-05T09:13:26;17.15;;;9.45;;
40164;SDS011;25882;51.120;17.248;2023-02-05T09:15:53;21.77;;;10.68;;
40164;SDS011;25882;51.120;17.248;2023-02-05T09:18:19;13.52;;;7.00;;
40164;SDS011;25882;51.120;17.248;2023-02-05T09:20:46;11.82;;;7.00;;
40164;SDS011;25882;51.120;17.248;2023-02-05T09:23:14;13.52;;;7.25;;
40164;SDS011;25882;51.120;17.248;2023-02-05T09:25:43;11.15;;;6.40;;
40164;SDS011;25882;51.120;17.248;2023-02-05T09:28:12;12.25;;;7.10;;
40164;SDS011;25882;51.120;17.248;2023-02-05T09:30:40;9.93;;;5.38;;
40164;SDS011;25882;51.120;17.248;2023-02-05T09:33:07;16.92;;;8.55;;
40164;SDS011;25882;51.120;17.248;2023-02-05T09:35:35;20.48;;;8.90;;
40164;SDS011;25882;51.120;17.248;2023-02-05T09:38:02;9.60;;;6.50;;
40164;SDS011;25882;51.120;17.248;2023-02-05T09:40:29;13.68;;;7.03;;
40164;SDS011;25882;51.120;17.248;2023-02-05T09:42:59;14.50;;;8.25;;
40164;SDS011;25882;51.120;17.248;2023-02-05T09:45:36;23.05;;;9.80;;
40164;SDS011;25882;51.120;17.248;2023-02-05T09:48:09;8.85;;;5.40;;
40164;SDS011;25882;51.120;17.248;2023-02-05T09:50:43;8.35;;;5.45;;
40164;SDS011;25882;51.120;17.248;2023-02-05T09:53:11;11.93;;;6.82;;
40164;SDS011;25882;51.120;17.248;2023-02-05T09:55:42;10.35;;;6.07;;
40164;SDS011;25882;51.120;17.248;2023-02-05T09:58:10;9.98;;;6.05;;
40164;SDS011;25882;51.120;17.248;2023-02-05T10:00:42;7.38;;;4.93;;
40164;SDS011;25882;51.120;17.248;2023-02-05T10:03:14;10.18;;;5.38;;
40164;SDS011;25882;51.120;17.248;2023-02-05T10:05:52;8.15;;;4.70;;
40164;SDS011;25882;51.120;17.248;2023-02-05T10:10:57;4.82;;;3.33;;
40164;SDS011;25882;51.120;17.248;2023-02-05T10:13:25;5.05;;;3.65;;
40164;SDS011;25882;51.120;17.248;2023-02-05T10:15:59;6.20;;;3.67;;
40164;SDS011;25882;51.120;17.248;2023-02-05T10:18:37;5.07;;;2.70;;
40164;SDS011;25882;51.120;17.248;2023-02-05T10:21:13;3.33;;;1.95;;
40164;SDS011;25882;51.120;17.248;2023-02-05T10:23:56;3.42;;;1.88;;
40164;SDS011;25882;51.120;17.248;2023-02-05T10:26:30;2.15;;;0.80;;
40164;SDS011;25882;51.120;17.248;2023-02-05T10:29:08;1.95;;;1.15;;
40164;SDS011;25882;51.120;17.248;2023-02-05T10:31:41;5.45;;;2.58;;
40164;SDS011;25882;51.120;17.248;2023-02-05T10:36:57;3.00;;;1.80;;
40164;SDS011;25882;51.120;17.248;2023-02-05T10:39:25;5.95;;;3.03;;
40164;SDS011;25882;51.120;17.248;2023-02-05T10:41:55;4.88;;;2.83;;
40164;SDS011;25882;51.120;17.248;2023-02-05T10:44:25;7.18;;;3.25;;
40164;SDS011;25882;51.120;17.248;2023-02-05T10:46:58;7.05;;;3.20;;
40164;SDS011;25882;51.120;17.248;2023-02-05T10:49:31;5.25;;;3.10;;
40164;SDS011;25882;51.120;17.248;2023-02-05T10:52:06;5.15;;;2.83;;
40164;SDS011;25882;51.120;17.248;2023-02-05T10:54:34;4.93;;;3.08;;
40164;SDS011;25882;51.120;17.248;2023-02-05T10:57:02;5.43;;;3.13;;
40164;SDS011;25882;51.120;17.248;2023-02-05T10:59:29;8.07;;;4.40;;
40164;SDS011;25882;51.120;17.248;2023-02-05T11:02:00;8.15;;;3.70;;
40164;SDS011;25882;51.120;17.248;2023-02-05T11:04:32;7.32;;;3.13;;
40164;SDS011;25882;51.120;17.248;2023-02-05T11:07:01;8.32;;;4.32;;
40164;SDS011;25882;51.120;17.248;2023-02-05T11:09:31;7.65;;;3.75;;
40164;SDS011;25882;51.120;17.248;2023-02-05T11:11:59;6.57;;;3.08;;
40164;SDS011;25882;51.120;17.248;2023-02-05T11:14:28;14.77;;;8.07;;
40164;SDS011;25882;51.120;17.248;2023-02-05T11:16:59;14.25;;;6.50;;
40164;SDS011;25882;51.120;17.248;2023-02-05T11:19:32;7.80;;;3.33;;
40164;SDS011;25882;51.120;17.248;2023-02-05T11:22:00;13.88;;;6.13;;
40164;SDS011;25882;51.120;17.248;2023-02-05T11:24:28;8.77;;;4.78;;
40164;SDS011;25882;51.120;17.248;2023-02-05T11:29:48;5.22;;;3.45;;
40164;SDS011;25882;51.120;17.248;2023-02-05T11:32:20;12.60;;;7.05;;
40164;SDS011;25882;51.120;17.248;2023-02-05T11:34:48;13.38;;;7.45;;
40164;SDS011;25882;51.120;17.248;2023-02-05T11:37:16;24.88;;;13.15;;
40164;SDS011;25882;51.120;17.248;2023-02-05T11:39:43;14.90;;;12.48;;
40164;SDS011;25882;51.120;17.248;2023-02-05T11:42:15;8.90;;;5.60;;
40164;SDS011;25882;51.120;17.248;2023-02-05T11:44:46;10.85;;;4.63;;
40164;SDS011;25882;51.120;17.248;2023-02-05T11:47:17;8.55;;;5.88;;
40164;SDS011;25882;51.120;17.248;2023-02-05T11:49:50;5.93;;;3.95;;
40164;SDS011;25882;51.120;17.248;2023-02-05T11:52:24;50.33;;;20.80;;
40164;SDS011;25882;51.120;17.248;2023-02-05T11:54:51;14.60;;;6.28;;
40164;SDS011;25882;51.120;17.248;2023-02-05T11:57:31;7.22;;;3.63;;
40164;SDS011;25882;51.120;17.248;2023-02-05T12:00:00;48.92;;;16.85;;
40164;SDS011;25882;51.120;17.248;2023-02-05T12:02:31;8.05;;;3.72;;
40164;SDS011;25882;51.120;17.248;2023-02-05T12:05:01;9.82;;;5.60;;
40164;SDS011;25882;51.120;17.248;2023-02-05T12:07:33;12.38;;;6.95;;
40164;SDS011;25882;51.120;17.248;2023-02-05T12:10:05;8.77;;;4.32;;
40164;SDS011;25882;51.120;17.248;2023-02-05T12:12:45;8.23;;;4.75;;
40164;SDS011;25882;51.120;17.248;2023-02-05T12:15:25;5.68;;;2.67;;
40164;SDS011;25882;51.120;17.248;2023-02-05T12:17:57;12.65;;;5.38;;
40164;SDS011;25882;51.120;17.248;2023-02-05T12:20:29;6.10;;;3.40;;
40164;SDS011;25882;51.120;17.248;2023-02-05T12:23:05;4.90;;;2.38;;
40164;SDS011;25882;51.120;17.248;2023-02-05T12:25:40;5.50;;;2.83;;
40164;SDS011;25882;51.120;17.248;2023-02-05T12:28:17;14.98;;;6.22;;
40164;SDS011;25882;51.120;17.248;2023-02-05T12:30:57;7.40;;;3.45;;
40164;SDS011;25882;51.120;17.248;2023-02-05T12:33:46;6.47;;;3.17;;
40164;SDS011;25882;51.120;17.248;2023-02-05T12:36:32;5.85;;;2.85;;
40164;SDS011;25882;51.120;17.248;2023-02-05T12:39:09;6.90;;;4.05;;
40164;SDS011;25882;51.120;17.248;2023-02-05T12:41:43;6.30;;;3.08;;
40164;SDS011;25882;51.120;17.248;2023-02-05T12:44:22;5.38;;;2.83;;
40164;SDS011;25882;51.120;17.248;2023-02-05T12:47:01;6.30;;;3.80;;
40164;SDS011;25882;51.120;17.248;2023-02-05T12:49:42;5.35;;;3.15;;
40164;SDS011;25882;51.120;17.248;2023-02-05T12:52:26;4.90;;;2.50;;
40164;SDS011;25882;51.120;17.248;2023-02-05T12:55:04;5.78;;;2.97;;
40164;SDS011;25882;51.120;17.248;2023-02-05T12:57:39;4.10;;;2.50;;
40164;SDS011;25882;51.120;17.248;2023-02-05T13:00:10;5.90;;;2.65;;
40164;SDS011;25882;51.120;17.248;2023-02-05T13:02:42;3.45;;;2.30;;
40164;SDS011;25882;51.120;17.248;2023-02-05T13:05:17;4.35;;;2.33;;
40164;SDS011;25882;51.120;17.248;2023-02-05T13:07:49;6.72;;;3.33;;
40164;SDS011;25882;51.120;17.248;2023-02-05T13:10:20;25.95;;;11.68;;
40164;SDS011;25882;51.120;17.248;2023-02-05T13:12:49;18.90;;;9.57;;
40164;SDS011;25882;51.120;17.248;2023-02-05T13:15:18;17.05;;;6.93;;
40164;SDS011;25882;51.120;17.248;2023-02-05T13:17:52;17.25;;;6.18;;
40164;SDS011;25882;51.120;17.248;2023-02-05T13:20:23;25.42;;;9.77;;
40164;SDS011;25882;51.120;17.248;2023-02-05T13:23:11;26.42;;;10.85;;
40164;SDS011;25882;51.120;17.248;2023-02-05T13:25:57;25.60;;;9.65;;
40164;SDS011;25882;51.120;17.248;2023-02-05T13:28:35;6.93;;;3.83;;
40164;SDS011;25882;51.120;17.248;2023-02-05T13:31:08;6.05;;;3.35;;
40164;SDS011;25882;51.120;17.248;2023-02-05T13:33:40;7.45;;;4.43;;
40164;SDS011;25882;51.120;17.248;2023-02-05T13:36:13;9.52;;;5.13;;
40164;SDS011;25882;51.120;17.248;2023-02-05T13:41:41;13.30;;;6.20;;
40164;SDS011;25882;51.120;17.248;2023-02-05T13:44:27;19.55;;;8.52;;
40164;SDS011;25882;51.120;17.248;2023-02-05T13:47:11;7.07;;;3.28;;
40164;SDS011;25882;51.120;17.248;2023-02-05T13:49:55;6.95;;;3.63;;
40164;SDS011;25882;51.120;17.248;2023-02-05T13:55:45;4.70;;;2.38;;
40164;SDS011;25882;51.120;17.248;2023-02-05T13:58:33;4.60;;;2.58;;
40164;SDS011;25882;51.120;17.248;2023-02-05T14:01:01;6.43;;;2.78;;
40164;SDS011;25882;51.120;17.248;2023-02-05T14:03:32;5.78;;;3.63;;
40164;SDS011;25882;51.120;17.248;2023-02-05T14:06:13;6.57;;;2.85;;
40164;SDS011;25882;51.120;17.248;2023-02-05T14:08:44;5.70;;;3.47;;
40164;SDS011;25882;51.120;17.248;2023-02-05T14:11:11;11.40;;;6.38;;
40164;SDS011;25882;51.120;17.248;2023-02-05T14:13:38;10.02;;;5.63;;
40164;SDS011;25882;51.120;17.248;2023-02-05T14:19:04;119.70;;;41.28;;
40164;SDS011;25882;51.120;17.248;2023-02-05T14:21:57;42.80;;;16.75;;
40164;SDS011;25882;51.120;17.248;2023-02-05T14:24:37;6.18;;;3.45;;
40164;SDS011;25882;51.120;17.248;2023-02-05T14:30:35;20.17;;;11.60;;
40164;SDS011;25882;51.120;17.248;2023-02-05T14:35:55;14.18;;;6.40;;
40164;SDS011;25882;51.120;17.248;2023-02-05T14:38:24;10.90;;;5.03;;
40164;SDS011;25882;51.120;17.248;2023-02-05T14:41:02;10.07;;;5.35;;
40164;SDS011;25882;51.120;17.248;2023-02-05T14:43:35;9.43;;;4.68;;
40164;SDS011;25882;51.120;17.248;2023-02-05T14:46:04;12.77;;;8.20;;
40164;SDS011;25882;51.120;17.248;2023-02-05T14:48:47;7.70;;;3.95;;
40164;SDS011;25882;51.120;17.248;2023-02-05T14:51:17;34.40;;;14.43;;
40164;SDS011;25882;51.120;17.248;2023-02-05T14:53:52;8.65;;;4.57;;
40164;SDS011;25882;51.120;17.248;2023-02-05T14:56:25;62.75;;;18.58;;
40164;SDS011;25882;51.120;17.248;2023-02-05T14:58:57;58.97;;;19.20;;
40164;SDS011;25882;51.120;17.248;2023-02-05T15:01:42;32.30;;;12.13;;
40164;SDS011;25882;51.120;17.248;2023-02-05T15:07:11;11.35;;;6.03;;
40164;SDS011;25882;51.120;17.248;2023-02-05T15:09:40;29.52;;;10.35;;
40164;SDS011;25882;51.120;17.248;2023-02-05T15:15:24;19.73;;;7.70;;